Nearby METAR Reports

Aktualna pogoda na lotniskach (dane METAR)

 

EPGD - Gdansk/Rebiechow, Poland
Distance from station: ENE 27mi, 44km
Updated: Fri, 20-Sep-2019 9:30pm PDT
Mostly Cloudy
Mostly Cloudy
 Wind from W
Wind: W 8 mph , 13 km/h
Temperature: 54°F , 12°C
Dew Point: 52°F , 11°C
Humidity: 94%
Barometer: 30.09 inHg , 1019 hPa
Clouds: Mostly Cloudy
Visibility: 6 miles , 10 km
Cloud details: Partly Cloudy 800 ft
Mostly Cloudy 1100 ft
2019/09/21 04:30 EPGD 210430Z 26007KT 9999 SCT008 BKN011 12/11 Q1019
EPSC - Szczecin/Golenio, Poland
Distance from station: WSW 128mi, 205km
Updated: Fri, 20-Sep-2019 9:30pm PDT
Overcast
Overcast
 Wind from SW
Wind: SW 6 mph , 9 km/h
Temperature: 55°F , 13°C
Dew Point: 50°F , 10°C
Humidity: 82%
Barometer: 30.18 inHg , 1022 hPa
Clouds: Overcast
Visibility: 6 miles , 10 km
Cloud details: Overcast 2600 ft
2019/09/21 04:30 EPSC 210430Z 23005KT 180V260 9999 OVC026 13/10 Q1022
 
EPPO - Poznan/Lawica, Poland
Distance from station: SSW 131mi, 210km
Updated: Fri, 20-Sep-2019 9:30pm PDT
Overcast
Overcast
 Wind from WSW
Wind: WSW 6 mph , 9 km/h
Temperature: 54°F , 12°C
Dew Point: 46°F , 8°C
Humidity: 77%
Barometer: 30.24 inHg , 1024 hPa
Clouds: Overcast
Visibility: 6 miles , 10 km
Cloud details: Overcast 4200 ft
2019/09/21 04:30 EPPO 210430Z 24005KT 9999 OVC042 12/08 Q1024
EPLL - Lodz/Lublinek, Poland
Distance from station: SSE 184mi, 296km
Updated: Fri, 20-Sep-2019 9:30pm PDT
Overcast
Overcast
 Wind from SW
Wind: SW 6 mph , 9 km/h
Temperature: 50°F , 10°C
Wind Chill: 48°F , 9°C
Dew Point: 45°F , 7°C
Humidity: 82%
Barometer: 30.24 inHg , 1024 hPa
Clouds: Overcast
Visibility: 6 miles , 10 km
Cloud details: Mostly Cloudy 1800 ft
Overcast 2000 ft
2019/09/21 04:30 EPLL 210430Z 23005KT 9999 BKN018 OVC020 10/07 Q1024
 
EPWA - Warsaw/Okecie, Poland
Distance from station: SE 191mi, 307km
Updated: Fri, 20-Sep-2019 9:30pm PDT
Mostly Cloudy
Mostly Cloudy
 Wind from W
Wind: W 7 mph , 11 km/h
Temperature: 52°F , 11°C
Dew Point: 48°F , 9°C
Humidity: 88%
Barometer: 30.18 inHg , 1022 hPa
Clouds: Mostly Cloudy
Visibility: 6 miles , 10 km
Cloud details: Partly Cloudy 1300 ft
Mostly Cloudy 3000 ft
2019/09/21 04:30 EPWA 210430Z 27006KT 240V300 9999 SCT013 BKN030 11/09 Q1022 TEMPO BKN013
EPWR - Wroclaw/Strachow, Poland
Distance from station: S 219mi, 352km
Updated: Fri, 20-Sep-2019 9:30pm PDT
Clear
Clear
 Wind from varies
Wind: varies 1 mph , 2 km/h
Temperature: 43°F , 6°C
Dew Point: 41°F , 5°C
Humidity: 93%
Barometer: 30.27 inHg , 1025 hPa
Summary: Clear
Visibility: greater than 7 miles , 10 km
2019/09/21 04:30 EPWR 210430Z VRB01KT CAVOK 06/05 Q1025

Metar display script from Saratoga-Weather.org